createdAt,value
2023-04-02T00:07:18.889Z,995.3
2023-04-02T00:17:18.840Z,995.5
2023-04-02T00:27:18.951Z,995.6
2023-04-02T00:37:18.905Z,995.8
2023-04-02T00:47:18.730Z,995.9
2023-04-02T00:57:18.847Z,996
2023-04-02T01:07:18.713Z,996.2
2023-04-02T01:17:18.707Z,996.3
2023-04-02T01:27:18.597Z,996.5
2023-04-02T01:37:18.614Z,996.7
2023-04-02T01:47:18.693Z,996.9
2023-04-02T01:57:18.576Z,997
2023-04-02T02:07:18.538Z,997.2
2023-04-02T02:17:18.604Z,997.4
2023-04-02T02:27:18.544Z,997.6
2023-04-02T02:37:18.619Z,997.8
2023-04-02T02:47:18.377Z,997.9
2023-04-02T02:57:18.360Z,998.1
2023-04-02T03:07:18.335Z,998.3
2023-04-02T03:17:18.287Z,998.4
2023-04-02T03:27:18.410Z,998.6
2023-04-02T03:37:18.426Z,998.9
2023-04-02T03:47:18.304Z,999.1
2023-04-02T03:57:18.262Z,999.3
2023-04-02T04:07:18.156Z,999.5
2023-04-02T04:17:18.218Z,999.7
2023-04-02T04:27:18.110Z,999.9
2023-04-02T04:37:18.091Z,1000.1
2023-04-02T04:47:18.112Z,1000.4
2023-04-02T04:57:18.026Z,1000.6
2023-04-02T05:07:18.026Z,1000.9
2023-04-02T05:17:18.102Z,1001.1
2023-04-02T05:27:17.972Z,1001.4
2023-04-02T05:37:17.946Z,1001.6
2023-04-02T05:47:17.934Z,1001.8
2023-04-02T05:57:17.872Z,1002
2023-04-02T06:07:17.878Z,1002.3
2023-04-02T06:17:17.821Z,1002.5
2023-04-02T06:27:17.786Z,1002.7
2023-04-02T06:37:17.765Z,1002.9
2023-04-02T06:47:17.735Z,1003.2
2023-04-02T06:57:17.716Z,1003.3
2023-04-02T07:07:17.701Z,1003.6
2023-04-02T07:17:17.672Z,1003.8
2023-04-02T07:27:17.634Z,1004.1
2023-04-02T07:37:17.607Z,1004.4
2023-04-02T07:47:17.573Z,1004.6
2023-04-02T07:57:17.557Z,1004.8
2023-04-02T08:07:17.547Z,1005
2023-04-02T08:17:17.500Z,1005.2
2023-04-02T08:27:17.485Z,1005.4
2023-04-02T08:37:17.528Z,1005.7
2023-04-02T08:47:17.449Z,1005.9
2023-04-02T08:57:17.449Z,1006.2
2023-04-02T09:07:17.371Z,1006.4
2023-04-02T09:17:17.350Z,1006.6
2023-04-02T09:27:17.335Z,1006.8
2023-04-02T09:37:17.295Z,1007
2023-04-02T09:47:17.272Z,1007.2
2023-04-02T09:57:17.238Z,1007.5
2023-04-02T10:07:17.216Z,1007.6
2023-04-02T10:17:17.309Z,1007.9
2023-04-02T10:27:17.301Z,1008.1
2023-04-02T10:37:17.175Z,1008.2
2023-04-02T10:47:17.099Z,1008.4
2023-04-02T10:57:17.107Z,1008.5
2023-04-02T11:07:17.096Z,1008.7
2023-04-02T11:17:17.036Z,1008.9
2023-04-02T11:27:16.993Z,1009.1
2023-04-02T11:37:16.976Z,1009.3
2023-04-02T11:47:16.932Z,1009.4
2023-04-02T11:57:16.904Z,1009.5
2023-04-02T12:07:16.888Z,1009.6
2023-04-02T12:17:16.848Z,1009.6
2023-04-02T12:27:16.861Z,1009.8
2023-04-02T12:37:16.858Z,1010
2023-04-02T12:47:16.783Z,1010.1
2023-04-02T12:57:16.741Z,1010.2
2023-04-02T13:07:16.721Z,1010.3
2023-04-02T13:17:16.691Z,1010.4
2023-04-02T13:27:16.672Z,1010.5
2023-04-02T13:37:16.636Z,1010.6
2023-04-02T13:47:16.603Z,1010.6
2023-04-02T13:57:16.567Z,1010.8
2023-04-02T14:07:16.631Z,1011
2023-04-02T14:17:16.563Z,1011.1
2023-04-02T14:27:16.595Z,1011.2
2023-04-02T14:37:16.542Z,1011.4
2023-04-02T14:47:16.446Z,1011.6
2023-04-02T14:57:16.408Z,1011.7
2023-04-02T15:07:16.372Z,1011.8
2023-04-02T15:17:16.370Z,1011.9
2023-04-02T15:27:16.359Z,1011.9
2023-04-02T15:37:16.311Z,1012
2023-04-02T15:47:16.260Z,1012.1
2023-04-02T15:57:16.229Z,1012.4
2023-04-02T16:07:16.203Z,1012.6
2023-04-02T16:17:16.179Z,1012.8
2023-04-02T16:27:16.149Z,1013
2023-04-02T16:37:16.135Z,1013.2
2023-04-02T16:47:16.119Z,1013.3
2023-04-02T16:57:16.074Z,1013.4
2023-04-02T17:07:16.030Z,1013.5
2023-04-02T17:17:16.033Z,1013.6
2023-04-02T17:27:16.013Z,1013.7
2023-04-02T17:37:15.982Z,1013.8
2023-04-02T17:47:15.935Z,1014
2023-04-02T17:57:16.029Z,1014.1
2023-04-02T18:07:15.874Z,1014.2
2023-04-02T18:17:15.831Z,1014.4
2023-04-02T18:27:15.900Z,1014.5
2023-04-02T18:37:15.808Z,1014.7
2023-04-02T18:47:15.762Z,1014.8
2023-04-02T18:57:15.921Z,1014.9
2023-04-02T19:07:15.893Z,1015.1
2023-04-02T19:17:15.828Z,1015.2
2023-04-02T19:27:15.656Z,1015.4
2023-04-02T19:37:15.808Z,1015.5
2023-04-02T19:47:15.757Z,1015.6
2023-04-02T19:57:15.716Z,1015.8
2023-04-02T20:07:15.706Z,1016
2023-04-02T20:17:15.525Z,1016
2023-04-02T20:27:15.649Z,1016.1
2023-04-02T20:37:15.640Z,1016.1
2023-04-02T20:47:15.616Z,1016.3
2023-04-02T20:57:15.582Z,1016.3
2023-04-02T21:07:15.483Z,1016.4
2023-04-02T21:17:15.524Z,1016.5
2023-04-02T21:27:15.485Z,1016.6
2023-04-02T21:37:15.506Z,1016.6
2023-04-02T21:47:15.419Z,1016.6
2023-04-02T21:57:15.360Z,1016.7
2023-04-02T22:07:15.387Z,1016.7
2023-04-02T22:17:15.373Z,1016.8
2023-04-02T22:27:15.375Z,1016.8
2023-04-02T22:37:15.372Z,1016.9
2023-04-02T22:47:15.137Z,1017
2023-04-02T22:57:15.368Z,1017.1
2023-04-02T23:07:15.255Z,1017.2
2023-04-02T23:17:15.221Z,1017.3
2023-04-02T23:27:15.257Z,1017.3
2023-04-02T23:37:15.223Z,1017.2
2023-04-02T23:47:15.202Z,1017.2
2023-04-02T23:57:15.226Z,1017.2
